Time;durP1;ratioP1;P1;durP2;ratioP2;P2;SDS_P1;SDS_P2;PMS_P1;PMS_P2;Temp;Humidity;BMP_temperature;BMP_pressure;BME280_temperature;BME280_humidity;BME280_pressure;Samples;Min_cycle;Max_cycle;Signal;HPM_P1;HPM_P2
2021/03/16 00:02:00;;;;;;;30.83;6.72;;;5.90;99.90;;;;;;5068560;28;20062;-81
2021/03/16 00:04:26;;;;;;;24.40;6.15;;;5.90;99.90;;;;;;5075774;28;20087;-82
2021/03/16 00:06:53;;;;;;;26.67;7.47;;;5.80;99.90;;;;;;5082981;28;20084;-80
2021/03/16 00:09:19;;;;;;;30.20;8.23;;;5.90;99.90;;;;;;5083894;28;20108;-80
2021/03/16 00:11:46;;;;;;;27.65;7.07;;;5.90;99.90;;;;;;5081381;28;20111;-81
2021/03/16 00:14:12;;;;;;;28.98;7.35;;;5.90;99.90;;;;;;5083991;28;20088;-80
2021/03/16 00:16:39;;;;;;;22.85;6.32;;;5.90;99.90;;;;;;5081916;28;20076;-81
2021/03/16 00:19:06;;;;;;;26.55;7.30;;;6.00;99.90;;;;;;5082731;28;20055;-82
2021/03/16 00:21:32;;;;;;;24.85;6.85;;;6.00;99.90;;;;;;5084093;28;20100;-81
2021/03/16 00:23:59;;;;;;;42.00;8.32;;;6.00;99.90;;;;;;5087325;28;20072;-81
2021/03/16 00:26:25;;;;;;;26.58;7.05;;;6.00;99.90;;;;;;5081610;28;20585;-80
2021/03/16 00:28:51;;;;;;;29.50;6.70;;;6.00;99.90;;;;;;5085240;28;20076;-81
2021/03/16 00:31:18;;;;;;;31.52;6.88;;;6.00;99.90;;;;;;5085194;28;20112;-81
2021/03/16 00:33:44;;;;;;;27.88;7.50;;;6.10;99.90;;;;;;5084471;28;20072;-79
2021/03/16 00:36:11;;;;;;;35.30;6.40;;;6.10;99.90;;;;;;5085146;28;20083;-82
2021/03/16 00:38:38;;;;;;;26.13;7.13;;;6.10;99.90;;;;;;5085666;28;20063;-82
2021/03/16 00:41:04;;;;;;;26.17;7.28;;;6.20;99.90;;;;;;5087035;28;20080;-82
2021/03/16 00:43:30;;;;;;;27.80;6.78;;;6.10;99.90;;;;;;5087106;28;20098;-84
2021/03/16 00:45:57;;;;;;;24.48;6.35;;;6.10;99.90;;;;;;5087114;28;20489;-81
2021/03/16 00:48:23;;;;;;;28.63;6.68;;;6.10;99.90;;;;;;5086440;28;20052;-81
2021/03/16 00:50:49;;;;;;;29.10;6.82;;;6.10;99.90;;;;;;5087359;28;20052;-82
2021/03/16 00:53:17;;;;;;;24.95;6.20;;;6.10;99.90;;;;;;5084786;28;20048;-81
2021/03/16 00:55:43;;;;;;;23.23;6.78;;;6.10;99.90;;;;;;5085777;28;20053;-83
2021/03/16 00:58:09;;;;;;;27.70;6.95;;;6.10;99.90;;;;;;5085349;28;20033;-82
2021/03/16 01:00:36;;;;;;;21.08;5.38;;;6.10;99.90;;;;;;5085199;28;20112;-81
2021/03/16 01:03:02;;;;;;;31.83;5.85;;;6.20;99.90;;;;;;5082472;28;20072;-80
2021/03/16 01:05:29;;;;;;;26.20;5.72;;;6.20;99.90;;;;;;5082324;28;20131;-83
2021/03/16 01:07:55;;;;;;;29.88;6.50;;;6.20;99.90;;;;;;5080339;28;20131;-80
2021/03/16 01:10:24;;;;;;;27.88;6.20;;;6.20;99.90;;;;;;5082085;28;20094;-81
2021/03/16 01:12:50;;;;;;;22.27;5.38;;;6.20;99.90;;;;;;5086621;28;20067;-81
2021/03/16 01:15:17;;;;;;;21.88;5.28;;;6.20;99.90;;;;;;5085809;28;20055;-82
2021/03/16 01:17:43;;;;;;;24.25;5.50;;;6.20;99.90;;;;;;5085329;28;20127;-83
2021/03/16 01:20:14;;;;;;;31.08;6.70;;;6.20;99.90;;;;;;5086289;28;20076;-84
2021/03/16 01:22:40;;;;;;;19.63;5.18;;;6.20;99.90;;;;;;5084992;28;20127;-81
2021/03/16 01:25:08;;;;;;;18.95;4.72;;;6.20;99.90;;;;;;5083072;28;20098;-81
2021/03/16 01:27:35;;;;;;;21.35;5.50;;;6.20;99.90;;;;;;5085344;28;20083;-80
2021/03/16 01:30:02;;;;;;;27.92;6.43;;;6.20;99.90;;;;;;5085828;28;20048;-79
2021/03/16 01:32:28;;;;;;;24.35;5.75;;;6.30;99.90;;;;;;5085429;28;20040;-81
2021/03/16 01:34:55;;;;;;;26.25;5.63;;;6.30;99.90;;;;;;5085118;28;20109;-82
2021/03/16 01:37:21;;;;;;;23.25;5.75;;;6.30;99.90;;;;;;5084425;28;20076;-81
2021/03/16 01:39:48;;;;;;;24.27;5.38;;;6.30;99.90;;;;;;5084821;28;20144;-79
2021/03/16 01:42:14;;;;;;;18.10;5.35;;;6.30;99.90;;;;;;5087469;28;20529;-83
2021/03/16 01:44:43;;;;;;;26.02;5.60;;;6.30;99.90;;;;;;5088271;28;20080;-83
2021/03/16 01:47:11;;;;;;;21.42;5.55;;;6.30;99.90;;;;;;5088329;28;20059;-82
2021/03/16 01:49:38;;;;;;;18.85;5.10;;;6.30;99.90;;;;;;5088664;28;20052;-83
2021/03/16 01:52:05;;;;;;;25.65;5.68;;;6.20;99.90;;;;;;5085472;28;20098;-78
2021/03/16 01:54:32;;;;;;;19.85;5.30;;;6.30;99.90;;;;;;5086455;28;20052;-80
2021/03/16 01:57:02;;;;;;;24.23;5.53;;;6.20;99.90;;;;;;5083444;28;20486;-80
2021/03/16 01:59:29;;;;;;;28.60;5.82;;;6.30;99.90;;;;;;5085872;28;20056;-79
2021/03/16 02:01:56;;;;;;;23.90;5.55;;;6.20;99.90;;;;;;5086743;28;20135;-79
2021/03/16 02:04:23;;;;;;;25.55;5.68;;;6.20;99.90;;;;;;5086895;28;20080;-79
2021/03/16 02:06:55;;;;;;;19.08;5.93;;;6.20;99.90;;;;;;5085466;28;20112;-80
2021/03/16 02:09:29;;;;;;;24.80;5.18;;;6.20;99.90;;;;;;5083821;28;20187;-80
2021/03/16 02:12:00;;;;;;;18.67;4.53;;;6.20;99.90;;;;;;5081262;28;20098;-78
2021/03/16 02:14:31;;;;;;;16.17;4.90;;;6.20;99.90;;;;;;5079074;28;20124;-79
2021/03/16 02:17:06;;;;;;;23.65;5.72;;;6.20;99.90;;;;;;5079606;28;20083;-79
2021/03/16 02:19:57;;;;;;;23.25;5.13;;;6.20;99.90;;;;;;5080129;28;20056;-78
2021/03/16 02:22:26;;;;;;;16.00;5.03;;;6.30;99.90;;;;;;5077648;28;20101;-78
2021/03/16 02:25:19;;;;;;;23.13;5.25;;;6.20;99.90;;;;;;5081361;28;20100;-79
2021/03/16 02:28:09;;;;;;;23.30;5.57;;;6.30;99.90;;;;;;5082131;28;20127;-81
2021/03/16 02:30:39;;;;;;;21.88;6.07;;;6.20;99.90;;;;;;5082826;28;20059;-80
2021/03/16 02:33:10;;;;;;;19.77;5.10;;;6.20;99.90;;;;;;5085819;28;20132;-80
2021/03/16 02:35:38;;;;;;;26.92;6.05;;;6.20;99.90;;;;;;5083919;28;20079;-80
2021/03/16 02:38:08;;;;;;;27.42;5.38;;;6.20;99.90;;;;;;5083971;28;20044;-80
2021/03/16 02:40:36;;;;;;;21.42;5.57;;;6.20;99.90;;;;;;5084558;28;20076;-79
2021/03/16 02:43:03;;;;;;;23.85;6.32;;;6.20;99.90;;;;;;5084204;28;20123;-79
2021/03/16 02:45:31;;;;;;;20.73;5.55;;;6.10;99.90;;;;;;5082639;28;20137;-80
2021/03/16 02:48:01;;;;;;;28.30;5.35;;;6.10;99.90;;;;;;5081913;28;20131;-82
2021/03/16 02:50:27;;;;;;;21.00;5.05;;;6.10;99.90;;;;;;5080929;28;20127;-82
2021/03/16 02:52:55;;;;;;;18.42;5.15;;;6.10;99.90;;;;;;5080342;28;20047;-81
2021/03/16 02:55:22;;;;;;;26.58;5.57;;;6.10;99.90;;;;;;5080527;28;20139;-82
2021/03/16 02:57:49;;;;;;;27.75;5.28;;;6.10;99.90;;;;;;5080203;28;20084;-81
2021/03/16 03:00:17;;;;;;;21.70;5.18;;;6.10;99.90;;;;;;5080200;28;20083;-81
2021/03/16 03:02:46;;;;;;;24.98;5.55;;;6.10;99.90;;;;;;5081505;28;20044;-82
2021/03/16 03:05:14;;;;;;;19.75;6.13;;;6.10;99.90;;;;;;5083254;28;20075;-81
2021/03/16 03:07:42;;;;;;;22.45;5.55;;;6.10;99.90;;;;;;5080616;28;20298;-81
2021/03/16 03:10:09;;;;;;;17.08;4.82;;;6.10;99.90;;;;;;5087152;28;20048;-82
2021/03/16 03:12:36;;;;;;;21.92;6.63;;;6.00;99.90;;;;;;5104190;22;20139;-78
2021/03/16 03:15:04;;;;;;;18.23;5.88;;;6.10;99.90;;;;;;5079171;28;20561;-80
2021/03/16 03:17:30;;;;;;;22.48;5.57;;;6.00;99.90;;;;;;5080412;28;20108;-81
2021/03/16 03:19:57;;;;;;;15.40;4.95;;;6.00;99.90;;;;;;5077499;28;20055;-78
2021/03/16 03:22:31;;;;;;;17.80;5.97;;;6.00;99.90;;;;;;5073827;28;20045;-78
2021/03/16 03:25:01;;;;;;;31.40;5.75;;;6.00;99.90;;;;;;5073830;28;20101;-78
2021/03/16 03:27:33;;;;;;;22.33;5.97;;;6.10;99.90;;;;;;5073115;28;20139;-78
2021/03/16 03:30:01;;;;;;;21.45;5.82;;;6.10;99.90;;;;;;5073121;28;20048;-78
2021/03/16 03:32:29;;;;;;;18.42;5.50;;;6.10;99.90;;;;;;5072670;28;20179;-78
2021/03/16 03:34:58;;;;;;;26.27;6.75;;;6.10;99.90;;;;;;5072962;28;20660;-77
2021/03/16 03:37:27;;;;;;;22.73;5.95;;;6.10;99.90;;;;;;5074037;28;20131;-78
2021/03/16 03:39:54;;;;;;;17.77;5.50;;;6.10;99.90;;;;;;5074456;28;20171;-79
2021/03/16 03:42:21;;;;;;;24.85;5.60;;;6.10;99.90;;;;;;5073741;28;20119;-79
2021/03/16 03:44:48;;;;;;;20.15;4.95;;;6.20;99.90;;;;;;5074043;28;20052;-79
2021/03/16 03:47:16;;;;;;;16.98;5.38;;;6.10;99.90;;;;;;5073348;28;20136;-79
2021/03/16 03:49:43;;;;;;;19.33;5.03;;;6.10;99.90;;;;;;5074981;28;20059;-80
2021/03/16 03:52:12;;;;;;;19.05;5.50;;;6.20;99.90;;;;;;5075502;28;20131;-79
2021/03/16 03:54:42;;;;;;;19.70;5.32;;;6.20;99.90;;;;;;5074959;28;20566;-79
2021/03/16 03:57:10;;;;;;;16.48;5.13;;;6.20;99.90;;;;;;5078116;28;20187;-80
2021/03/16 03:59:40;;;;;;;20.25;5.65;;;6.20;99.90;;;;;;5078351;28;20084;-80
2021/03/16 04:02:07;;;;;;;23.45;6.22;;;6.20;99.90;;;;;;5075519;28;20044;-80
2021/03/16 04:04:34;;;;;;;20.17;5.45;;;6.20;99.90;;;;;;5076200;28;20167;-79
2021/03/16 04:07:01;;;;;;;20.35;5.40;;;6.20;99.90;;;;;;5076705;28;20492;-79
2021/03/16 04:09:27;;;;;;;22.48;5.25;;;6.20;99.90;;;;;;5077231;28;20104;-80
2021/03/16 04:11:55;;;;;;;22.50;5.40;;;6.10;99.90;;;;;;5076902;28;20129;-79
2021/03/16 04:14:22;;;;;;;19.90;5.10;;;6.10;99.90;;;;;;5077096;28;20062;-79
2021/03/16 04:16:49;;;;;;;28.15;5.78;;;6.10;99.90;;;;;;5076205;28;20139;-79
2021/03/16 04:19:16;;;;;;;19.25;5.53;;;6.10;99.90;;;;;;5075592;28;20418;-78
2021/03/16 04:21:43;;;;;;;23.05;5.32;;;6.10;99.90;;;;;;5074265;28;20048;-78
2021/03/16 04:24:10;;;;;;;18.10;4.60;;;6.10;99.90;;;;;;5074734;28;20040;-79
2021/03/16 04:26:37;;;;;;;23.13;5.65;;;6.10;99.90;;;;;;5076726;28;20155;-80
2021/03/16 04:29:04;;;;;;;20.30;5.57;;;6.10;99.90;;;;;;5077300;28;20059;-80
2021/03/16 04:31:30;;;;;;;22.58;4.97;;;6.10;99.90;;;;;;5077769;28;20076;-81
2021/03/16 04:33:57;;;;;;;19.38;5.47;;;6.10;99.90;;;;;;5075914;28;20076;-78
2021/03/16 04:36:23;;;;;;;26.45;6.15;;;6.10;99.90;;;;;;5074770;28;20091;-78
2021/03/16 04:38:50;;;;;;;22.88;4.78;;;6.10;99.90;;;;;;5075276;28;20049;-78
2021/03/16 04:41:16;;;;;;;18.00;5.20;;;6.10;99.90;;;;;;5076180;28;20135;-79
2021/03/16 04:43:45;;;;;;;26.48;6.10;;;6.10;99.90;;;;;;5078213;28;20075;-78
2021/03/16 04:46:12;;;;;;;30.00;6.25;;;6.00;99.90;;;;;;5078651;28;20088;-77
2021/03/16 04:48:39;;;;;;;26.90;4.82;;;6.00;99.90;;;;;;5076684;28;20132;-78
2021/03/16 04:51:05;;;;;;;17.75;5.22;;;6.00;99.90;;;;;;5078812;28;20124;-80
2021/03/16 04:53:32;;;;;;;20.27;5.55;;;6.10;99.90;;;;;;5082279;28;20140;-80
2021/03/16 04:55:58;;;;;;;21.17;5.00;;;6.10;99.90;;;;;;5090160;28;20064;-80
2021/03/16 04:58:25;;;;;;;17.77;5.88;;;6.10;99.90;;;;;;5081589;28;20523;-77
2021/03/16 05:00:51;;;;;;;22.05;5.45;;;6.10;99.90;;;;;;5081849;28;20132;-77
2021/03/16 05:03:18;;;;;;;21.30;5.47;;;6.10;99.90;;;;;;5081569;28;20560;-77
2021/03/16 05:05:44;;;;;;;27.85;6.10;;;6.10;99.90;;;;;;5081521;28;20052;-79
2021/03/16 05:08:11;;;;;;;21.90;5.38;;;6.10;99.90;;;;;;5078701;28;20072;-78
2021/03/16 05:10:37;;;;;;;17.23;5.05;;;6.00;99.90;;;;;;5078953;28;20131;-77
2021/03/16 05:13:04;;;;;;;20.95;4.97;;;6.10;99.90;;;;;;5079226;28;20052;-78
2021/03/16 05:15:30;;;;;;;24.38;4.90;;;6.10;99.90;;;;;;5087135;28;20108;-80
2021/03/16 05:17:56;;;;;;;21.73;4.85;;;6.10;99.90;;;;;;5097276;28;20064;-81
2021/03/16 05:20:24;;;;;;;16.33;5.00;;;6.10;99.90;;;;;;5097510;28;20053;-81
2021/03/16 05:22:50;;;;;;;24.90;5.55;;;6.10;99.90;;;;;;5093188;28;20104;-79
2021/03/16 05:25:19;;;;;;;26.02;5.50;;;6.10;99.90;;;;;;5091642;28;20044;-79
2021/03/16 05:27:46;;;;;;;29.17;5.30;;;6.10;99.90;;;;;;5088880;28;20056;-79
2021/03/16 05:30:14;;;;;;;23.58;5.95;;;6.10;99.90;;;;;;5086806;28;20052;-79
2021/03/16 05:32:40;;;;;;;24.02;5.63;;;6.10;99.90;;;;;;5082231;28;20068;-79
2021/03/16 05:35:07;;;;;;;20.77;5.93;;;6.10;99.90;;;;;;5078587;28;20072;-79
2021/03/16 05:37:35;;;;;;;23.45;5.88;;;6.10;99.90;;;;;;5077161;28;20079;-79
2021/03/16 05:40:01;;;;;;;23.77;5.28;;;6.10;99.90;;;;;;5081830;28;20060;-81
2021/03/16 05:42:28;;;;;;;26.17;7.65;;;6.10;99.90;;;;;;5082501;28;20049;-81
2021/03/16 05:44:57;;;;;;;19.40;5.40;;;6.10;99.90;;;;;;5082055;28;20091;-80
2021/03/16 05:47:26;;;;;;;22.42;6.05;;;6.10;99.90;;;;;;5080975;28;20472;-79
2021/03/16 05:49:54;;;;;;;20.08;5.65;;;6.10;99.90;;;;;;5081019;28;20433;-80
2021/03/16 05:52:21;;;;;;;18.25;5.72;;;6.10;99.90;;;;;;5080634;28;20107;-81
2021/03/16 05:54:52;;;;;;;24.55;5.40;;;6.10;99.90;;;;;;5078157;28;20132;-79
2021/03/16 05:57:19;;;;;;;19.45;6.20;;;6.10;99.90;;;;;;5077560;28;20566;-79
2021/03/16 05:59:46;;;;;;;24.58;5.68;;;6.10;99.90;;;;;;5076851;28;20131;-79
2021/03/16 06:02:13;;;;;;;15.90;5.47;;;6.10;99.90;;;;;;5077573;28;20060;-79
2021/03/16 06:04:42;;;;;;;19.75;5.40;;;6.00;99.90;;;;;;5076515;28;20104;-79
2021/03/16 06:07:08;;;;;;;22.33;5.80;;;6.10;99.90;;;;;;5076316;28;20171;-80
2021/03/16 06:09:35;;;;;;;16.73;5.10;;;6.10;99.90;;;;;;5077580;28;20131;-81
2021/03/16 06:12:02;;;;;;;23.58;5.53;;;6.10;99.90;;;;;;5076924;28;20139;-80
2021/03/16 06:14:32;;;;;;;28.90;6.28;;;6.10;99.90;;;;;;5080539;28;20052;-80
2021/03/16 06:17:01;;;;;;;32.60;6.38;;;6.10;99.90;;;;;;5082155;28;20080;-82
2021/03/16 06:19:32;;;;;;;17.58;6.22;;;6.10;99.90;;;;;;5082857;28;20044;-80
2021/03/16 06:21:59;;;;;;;15.57;5.15;;;6.20;99.90;;;;;;5083809;28;20059;-80
2021/03/16 06:24:26;;;;;;;17.73;5.05;;;6.20;99.90;;;;;;5081703;28;20074;-81
2021/03/16 06:26:52;;;;;;;22.45;5.07;;;6.20;99.90;;;;;;5080831;28;20215;-80
2021/03/16 06:29:20;;;;;;;21.17;5.40;;;6.20;99.90;;;;;;5080206;28;20044;-80
2021/03/16 06:31:46;;;;;;;21.33;6.10;;;6.20;99.90;;;;;;5079965;28;20079;-81
2021/03/16 06:34:21;;;;;;;20.40;5.97;;;6.20;99.90;;;;;;5080482;28;20072;-80
2021/03/16 06:36:48;;;;;;;22.67;5.85;;;6.30;99.90;;;;;;5080365;28;20108;-81
2021/03/16 06:39:18;;;;;;;22.25;5.60;;;6.30;99.90;;;;;;5079746;28;20452;-80
2021/03/16 06:41:45;;;;;;;24.02;7.00;;;6.40;99.90;;;;;;5080837;28;20049;-81
2021/03/16 06:44:17;;;;;;;20.00;5.53;;;6.40;99.90;;;;;;5083346;28;20052;-80
2021/03/16 06:46:52;;;;;;;27.20;5.87;;;6.40;99.90;;;;;;5081185;28;20052;-78
2021/03/16 06:49:22;;;;;;;17.63;5.75;;;6.50;99.90;;;;;;5084286;28;20079;-82
2021/03/16 06:51:50;;;;;;;17.45;5.50;;;6.50;99.90;;;;;;5084307;28;20056;-83
2021/03/16 06:54:17;;;;;;;21.35;5.65;;;6.50;99.90;;;;;;5082680;28;20075;-82
2021/03/16 06:56:51;;;;;;;22.30;5.00;;;6.50;99.90;;;;;;5082653;28;20083;-81
2021/03/16 06:59:22;;;;;;;20.75;4.95;;;6.50;99.90;;;;;;5082866;28;20091;-82
2021/03/16 07:01:49;;;;;;;16.85;4.65;;;6.50;99.90;;;;;;5081401;28;20135;-82
2021/03/16 07:04:17;;;;;;;14.75;4.85;;;6.50;99.90;;;;;;5079216;28;20084;-81
2021/03/16 07:06:45;;;;;;;18.23;4.57;;;6.60;99.90;;;;;;5079883;28;20084;-81
2021/03/16 07:09:13;;;;;;;15.50;5.60;;;6.60;99.90;;;;;;5080830;28;20055;-82
2021/03/16 07:11:40;;;;;;;42.65;6.97;;;6.60;99.90;;;;;;5081343;28;20068;-81
2021/03/16 07:14:07;;;;;;;22.45;5.68;;;6.70;99.90;;;;;;5080097;28;20104;-80
2021/03/16 07:16:35;;;;;;;23.08;5.68;;;6.70;99.90;;;;;;5080450;28;20539;-81
2021/03/16 07:19:05;;;;;;;25.98;6.47;;;6.90;99.90;;;;;;5080506;28;20139;-81
2021/03/16 07:21:37;;;;;;;24.63;5.55;;;6.90;99.90;;;;;;5080148;28;20137;-81
2021/03/16 07:24:09;;;;;;;22.95;5.55;;;6.90;99.90;;;;;;5080269;28;20134;-81
2021/03/16 07:26:36;;;;;;;25.73;5.80;;;6.90;99.90;;;;;;5080220;28;20409;-81
2021/03/16 07:29:04;;;;;;;23.90;6.13;;;7.00;99.90;;;;;;5063215;28;20113;-81
2021/03/16 07:31:32;;;;;;;23.42;6.05;;;7.00;99.90;;;;;;5063474;28;20060;-82
2021/03/16 07:34:02;;;;;;;27.17;6.40;;;7.20;99.90;;;;;;5074135;28;20080;-80
2021/03/16 07:36:30;;;;;;;21.65;7.00;;;7.40;99.90;;;;;;5070773;28;20044;-82
2021/03/16 07:38:58;;;;;;;28.55;7.85;;;7.40;99.90;;;;;;5081372;28;20053;-81
2021/03/16 07:41:24;;;;;;;27.02;7.88;;;7.50;99.90;;;;;;5081152;28;20098;-83
2021/03/16 07:44:01;;;;;;;22.05;6.97;;;7.50;99.90;;;;;;5070539;28;20091;-81
2021/03/16 07:46:40;;;;;;;17.48;5.90;;;7.60;99.90;;;;;;5060722;28;20049;-81
2021/03/16 07:49:08;;;;;;;19.55;6.43;;;7.70;99.90;;;;;;5068792;28;20128;-81
2021/03/16 07:51:35;;;;;;;17.33;6.15;;;7.80;99.90;;;;;;5069350;28;20536;-82
2021/03/16 07:54:04;;;;;;;23.60;6.57;;;8.00;99.90;;;;;;5066554;28;20584;-82
2021/03/16 07:56:33;;;;;;;28.00;7.15;;;8.30;99.90;;;;;;5069713;28;20131;-82
2021/03/16 07:58:59;;;;;;;23.55;7.90;;;8.50;99.90;;;;;;5074676;28;20056;-83
2021/03/16 08:01:26;;;;;;;28.23;8.15;;;8.50;99.90;;;;;;5071578;28;20142;-84
2021/03/16 08:04:03;;;;;;;26.42;7.40;;;8.40;99.90;;;;;;5071370;28;20502;-84
2021/03/16 08:06:31;;;;;;;21.35;6.90;;;8.40;99.90;;;;;;5069304;28;20075;-81
2021/03/16 08:08:58;;;;;;;27.75;8.25;;;8.50;99.90;;;;;;5072637;28;20062;-83
2021/03/16 08:11:36;;;;;;;21.17;7.32;;;8.50;99.90;;;;;;5072244;28;20198;-81
2021/03/16 08:14:04;;;;;;;23.90;6.85;;;8.70;99.90;;;;;;5069035;28;20574;-81
2021/03/16 08:16:35;;;;;;;18.65;7.15;;;8.90;99.90;;;;;;5062892;28;20053;-80
2021/03/16 08:19:12;;;;;;;18.65;6.95;;;8.80;99.90;;;;;;5067781;28;20063;-80
2021/03/16 08:21:40;;;;;;;18.25;6.82;;;8.90;99.90;;;;;;5080407;28;20071;-80
2021/03/16 08:24:10;;;;;;;14.85;6.30;;;9.00;99.90;;;;;;5082745;28;20078;-81
2021/03/16 08:26:44;;;;;;;21.95;6.03;;;9.20;99.90;;;;;;5071778;28;20068;-81
2021/03/16 08:29:10;;;;;;;14.52;5.55;;;9.60;99.90;;;;;;5077265;28;20112;-82
2021/03/16 08:31:37;;;;;;;16.83;6.35;;;10.30;99.90;;;;;;5077588;28;20084;-82
2021/03/16 08:34:06;;;;;;;12.13;5.30;;;10.50;99.90;;;;;;5077902;28;20080;-82
2021/03/16 08:36:38;;;;;;;18.48;6.20;;;10.40;99.90;;;;;;5078965;28;20113;-82
2021/03/16 08:39:04;;;;;;;25.52;6.70;;;10.30;99.90;;;;;;5079580;28;20131;-82
2021/03/16 08:41:32;;;;;;;13.25;5.35;;;10.00;99.90;;;;;;5079361;28;20091;-83
2021/03/16 08:43:58;;;;;;;17.02;5.18;;;9.70;99.90;;;;;;5080339;28;20055;-83
2021/03/16 08:46:29;;;;;;;19.77;6.05;;;9.40;99.90;;;;;;5078732;28;20057;-83
2021/03/16 08:48:56;;;;;;;15.77;5.55;;;9.30;99.90;;;;;;5078983;28;20126;-83
2021/03/16 08:51:23;;;;;;;13.88;4.93;;;9.40;99.90;;;;;;5083872;28;20088;-82
2021/03/16 08:53:50;;;;;;;12.07;5.40;;;9.50;99.90;;;;;;5083921;28;20068;-83
2021/03/16 08:56:20;;;;;;;14.05;5.30;;;9.60;99.90;;;;;;5090058;28;20047;-83
2021/03/16 08:58:47;;;;;;;12.30;4.95;;;9.80;99.90;;;;;;5094244;28;20083;-84
2021/03/16 09:01:24;;;;;;;20.45;5.10;;;9.90;99.90;;;;;;5089189;28;20068;-83
2021/03/16 09:03:52;;;;;;;16.27;5.47;;;9.80;99.90;;;;;;5059504;28;20073;-84
2021/03/16 09:06:19;;;;;;;17.27;5.30;;;9.70;99.90;;;;;;5060504;28;20095;-84
2021/03/16 09:08:50;;;;;;;11.65;4.80;;;9.80;99.90;;;;;;5063557;28;20088;-85
2021/03/16 09:14:22;;;;;;;9.50;4.35;;;9.60;99.90;;;;;;5080627;22;20045;-77
2021/03/16 09:16:52;;;;;;;17.35;5.10;;;9.40;99.90;;;;;;5053301;28;20510;-78
2021/03/16 09:19:21;;;;;;;15.13;5.30;;;9.30;99.90;;;;;;5051004;28;20060;-76
2021/03/16 09:21:53;;;;;;;14.55;4.68;;;9.10;99.90;;;;;;5051271;28;20194;-76
2021/03/16 09:24:24;;;;;;;15.68;6.30;;;8.80;99.90;;;;;;5049955;28;20053;-77
2021/03/16 09:26:55;;;;;;;16.10;6.03;;;8.70;99.90;;;;;;5049919;28;20140;-78
2021/03/16 09:29:26;;;;;;;20.40;5.97;;;8.60;99.90;;;;;;5050107;28;20138;-79
2021/03/16 09:31:53;;;;;;;15.95;5.53;;;8.70;99.90;;;;;;5051016;28;20057;-77
2021/03/16 09:34:19;;;;;;;22.48;7.72;;;8.90;99.90;;;;;;5049253;28;20087;-76
2021/03/16 09:36:57;;;;;;;15.73;5.78;;;9.30;99.90;;;;;;5049749;28;20527;-77
2021/03/16 09:39:23;;;;;;;13.27;5.35;;;9.70;99.90;;;;;;5050473;28;20465;-74
2021/03/16 09:41:55;;;;;;;14.68;5.60;;;9.70;99.90;;;;;;5050563;28;20045;-73
2021/03/16 09:44:30;;;;;;;13.55;5.40;;;9.80;99.90;;;;;;5049316;28;20091;-74
2021/03/16 09:46:57;;;;;;;15.68;4.90;;;9.70;99.90;;;;;;5049754;28;20049;-77
2021/03/16 09:49:34;;;;;;;13.35;5.20;;;9.60;99.90;;;;;;5050311;28;20057;-76
2021/03/16 09:52:06;;;;;;;23.60;5.75;;;9.50;99.90;;;;;;5050339;28;20053;-76
2021/03/16 09:54:40;;;;;;;22.10;6.85;;;9.40;99.90;;;;;;5049223;28;20049;-74
2021/03/16 09:57:08;;;;;;;20.98;6.03;;;9.30;99.90;;;;;;5050368;28;20045;-73
2021/03/16 09:59:45;;;;;;;16.08;5.38;;;9.10;99.90;;;;;;5050712;28;20375;-76
2021/03/16 10:02:13;;;;;;;17.25;5.57;;;9.00;99.90;;;;;;5053832;28;20064;-74
2021/03/16 10:04:47;;;;;;;10.35;5.15;;;9.00;99.90;;;;;;5054364;28;20128;-75
2021/03/16 10:07:24;;;;;;;18.73;6.32;;;9.00;99.90;;;;;;5053479;28;20095;-76
2021/03/16 10:09:52;;;;;;;15.98;5.93;;;9.10;99.90;;;;;;5053910;28;20124;-75
2021/03/16 10:12:20;;;;;;;25.52;7.38;;;9.10;99.90;;;;;;5053538;28;20053;-74
2021/03/16 10:14:50;;;;;;;16.98;5.97;;;9.20;99.90;;;;;;5052954;28;20053;-75
2021/03/16 10:17:23;;;;;;;16.98;5.60;;;9.30;99.90;;;;;;5052626;28;20143;-75
2021/03/16 10:19:52;;;;;;;17.00;5.63;;;9.40;99.90;;;;;;5053447;28;20072;-75
2021/03/16 10:22:19;;;;;;;19.27;4.78;;;9.50;99.90;;;;;;5053038;28;20057;-75
2021/03/16 10:24:54;;;;;;;16.13;4.93;;;9.60;99.90;;;;;;5052192;28;20095;-75
2021/03/16 10:27:28;;;;;;;12.13;4.25;;;9.80;99.90;;;;;;5052678;28;20385;-73
2021/03/16 10:29:56;;;;;;;12.25;4.22;;;9.90;99.90;;;;;;5053637;28;20056;-75
2021/03/16 10:32:22;;;;;;;20.52;4.97;;;10.00;99.90;;;;;;5052763;28;20053;-75
2021/03/16 10:34:49;;;;;;;13.00;5.60;;;10.10;99.90;;;;;;5051711;28;20128;-75
2021/03/16 10:37:20;;;;;;;12.68;4.70;;;10.20;99.90;;;;;;5052549;28;20049;-75
2021/03/16 10:39:47;;;;;;;12.65;4.00;;;10.40;99.90;;;;;;5052890;28;20127;-75
2021/03/16 10:42:13;;;;;;;14.57;4.20;;;10.50;99.90;;;;;;5053231;28;20132;-75
2021/03/16 10:44:40;;;;;;;11.07;4.03;;;10.60;99.90;;;;;;5051929;28;20050;-74
2021/03/16 10:47:08;;;;;;;21.35;5.97;;;10.50;99.90;;;;;;5052470;28;20068;-74
2021/03/16 10:49:35;;;;;;;25.45;6.45;;;10.40;99.90;;;;;;5052800;28;20041;-75
2021/03/16 10:52:02;;;;;;;20.20;6.28;;;10.00;99.90;;;;;;5052898;28;20127;-75
2021/03/16 10:54:28;;;;;;;23.75;6.13;;;9.80;99.90;;;;;;5051713;28;20410;-75
2021/03/16 10:56:55;;;;;;;13.80;5.97;;;9.50;99.90;;;;;;5052525;28;20537;-74
2021/03/16 10:59:21;;;;;;;16.60;6.85;;;9.30;99.90;;;;;;5053040;28;20529;-76
2021/03/16 11:01:48;;;;;;;17.98;5.60;;;9.40;99.90;;;;;;5053261;28;20144;-75
2021/03/16 11:04:17;;;;;;;29.30;7.47;;;9.50;99.90;;;;;;5051945;28;20183;-75
2021/03/16 11:06:44;;;;;;;15.77;5.80;;;9.60;99.90;;;;;;5052366;28;20049;-76
2021/03/16 11:09:11;;;;;;;19.55;5.57;;;9.80;99.90;;;;;;5052509;28;20060;-75
2021/03/16 11:11:38;;;;;;;14.88;6.55;;;9.90;99.90;;;;;;5051615;28;20479;-77
2021/03/16 11:14:04;;;;;;;24.52;6.60;;;9.90;99.90;;;;;;5051677;28;20517;-77
2021/03/16 11:16:31;;;;;;;21.52;5.78;;;9.90;99.90;;;;;;5052086;28;20045;-77
2021/03/16 11:18:57;;;;;;;19.23;7.18;;;10.00;99.90;;;;;;5052263;28;20076;-77
2021/03/16 11:21:25;;;;;;;12.32;5.60;;;9.90;99.90;;;;;;5052289;28;20055;-74
2021/03/16 11:23:51;;;;;;;16.40;6.82;;;9.70;99.90;;;;;;5051710;28;20072;-74
2021/03/16 11:26:18;;;;;;;22.35;7.22;;;9.60;99.90;;;;;;5051621;28;20053;-75
2021/03/16 11:28:44;;;;;;;14.80;5.88;;;9.50;99.90;;;;;;5050493;28;20049;-77
2021/03/16 11:31:11;;;;;;;16.77;6.38;;;9.60;99.90;;;;;;5050621;28;20194;-75
2021/03/16 11:33:38;;;;;;;10.20;4.72;;;9.60;99.90;;;;;;5050428;28;20052;-73
2021/03/16 11:36:06;;;;;;;16.08;5.80;;;9.60;99.90;;;;;;5051004;28;20131;-71
2021/03/16 11:38:33;;;;;;;13.13;5.40;;;9.50;99.90;;;;;;5051538;28;20060;-73
2021/03/16 11:41:00;;;;;;;13.60;5.55;;;9.60;99.90;;;;;;5052123;28;20053;-75
2021/03/16 11:43:26;;;;;;;12.38;5.20;;;9.50;99.90;;;;;;5051189;28;20132;-74
2021/03/16 11:45:52;;;;;;;17.00;5.28;;;9.60;99.90;;;;;;5051458;28;20408;-74
2021/03/16 11:48:19;;;;;;;12.85;4.55;;;9.60;99.90;;;;;;5051216;28;20439;-75
2021/03/16 11:50:45;;;;;;;12.52;4.45;;;9.70;99.90;;;;;;5052163;28;20174;-76
2021/03/16 11:53:12;;;;;;;13.02;4.35;;;9.90;99.90;;;;;;5051230;28;20140;-75
2021/03/16 11:55:39;;;;;;;15.98;5.20;;;10.10;99.90;;;;;;5051078;28;20059;-73
2021/03/16 11:58:06;;;;;;;16.02;5.82;;;10.20;99.90;;;;;;5051027;28;20470;-74
2021/03/16 12:00:32;;;;;;;23.20;6.78;;;10.30;99.90;;;;;;5051686;28;20091;-74
2021/03/16 12:02:59;;;;;;;14.75;4.40;;;10.40;99.90;;;;;;5051262;28;20555;-74
2021/03/16 12:05:26;;;;;;;10.27;4.22;;;10.60;99.90;;;;;;5050653;28;20053;-75
2021/03/16 12:07:52;;;;;;;9.57;4.20;;;10.60;99.90;;;;;;5051239;28;20053;-74
2021/03/16 12:10:19;;;;;;;13.35;4.38;;;10.70;99.90;;;;;;5051911;28;20429;-75
2021/03/16 12:12:46;;;;;;;10.25;3.92;;;10.80;99.90;;;;;;5051445;28;20148;-76
2021/03/16 12:15:18;;;;;;;12.07;5.10;;;11.00;99.90;;;;;;5050585;28;20131;-74
2021/03/16 12:17:45;;;;;;;15.15;4.25;;;11.00;99.90;;;;;;5051424;28;20056;-73
2021/03/16 12:20:15;;;;;;;10.10;3.58;;;11.10;99.90;;;;;;5051500;28;20130;-74
2021/03/16 12:22:42;;;;;;;10.75;3.75;;;11.30;99.90;;;;;;5050898;28;20080;-74
2021/03/16 12:25:09;;;;;;;11.00;3.83;;;11.20;99.90;;;;;;5050309;28;20127;-75
2021/03/16 12:27:36;;;;;;;8.77;4.10;;;11.20;99.90;;;;;;5050520;28;20106;-73
2021/03/16 12:30:05;;;;;;;16.05;4.60;;;11.20;99.90;;;;;;5050835;28;20564;-77
2021/03/16 12:32:31;;;;;;;8.93;4.28;;;11.20;99.90;;;;;;5050997;28;20074;-74
2021/03/16 12:34:58;;;;;;;11.57;4.45;;;11.00;99.90;;;;;;5050232;28;20067;-73
2021/03/16 12:37:30;;;;;;;10.18;5.88;;;10.80;99.90;;;;;;5050848;28;20049;-73
2021/03/16 12:39:56;;;;;;;13.13;7.20;;;10.30;99.90;;;;;;5051509;28;20079;-74
2021/03/16 12:42:23;;;;;;;12.13;6.50;;;9.70;99.90;;;;;;5051023;28;20041;-76
2021/03/16 12:44:49;;;;;;;12.63;5.57;;;9.40;99.90;;;;;;5049651;28;20049;-74
2021/03/16 12:47:17;;;;;;;14.32;5.85;;;9.10;99.90;;;;;;5051047;28;20059;-74
2021/03/16 12:49:43;;;;;;;14.48;5.30;;;9.00;99.90;;;;;;5051212;28;20084;-75
2021/03/16 12:52:09;;;;;;;11.02;5.10;;;9.00;99.90;;;;;;5051009;28;20136;-74
2021/03/16 12:54:36;;;;;;;12.65;5.03;;;9.00;99.90;;;;;;5050331;28;20064;-79